Airfield :
LOGIN :

Register | Disclaimer

   EN    FR    IT 

 










Legend :    VFR   Marginal VFR   IFR   Intensive IFR   Very Intensive IFR
Visi :
Ceiling :
>= 8 km
>= 3000ft
5 to 8 km
1000 to 3000 ft
1500m to 5 km
500 to 1000 ft
800 to 1500m
200 to 500 ft
< 800m
< 200 ft
Symbols :   Thunderstorms  Fog  Heavy snow  Heavy precipitations  Wind > 20 kt
SIGMETs :     Misc.  Thunderstorms  Icing  Turbulence  Mountain Waves  Volcanic Ashes






- Airport Elevation : 158 ft
- IATA code : QAR


EHDL - Deelen Airbase

CURRENT METAR :
  • 270655Z AUTO 20010KT 150V260 5000 DZ SCT004 BKN005 BKN007 FEW015CB 08/07 Q1007 YLO

EXPIRED METARs :
  • 270625Z AUTO 19011KT 150V240 6000 -SHRA FEW004 BKN005 BKN006 FEW015CB 08/08 Q1007 REDZ YLO
  • 270555Z AUTO 20012KT 150V240 6000 -RA SCT004 BKN006 BKN008 FEW015CB 08/07 Q1007 RERA REDZ YLO
  • 270525Z AUTO 20011KT 150V250 9999 SCT005 OVC006 08/07 Q1007 YLO
  • 270455Z AUTO 20012KT 150V240 9000 +DZ SCT004 BKN006 OVC007 08/07 Q1007 YLO
  • 270425Z AUTO 20014KT 160V250 9999 -RA FEW005 BKN006 OVC008 08/07 Q1007 YLO

Expired Forecast.



MET'MAP, your aeronautical weather chart ! - Copyright ORBIFLY December 2007 - Disclaimer

ORBIFLY MET'MAP TEAM :

Programming & Development : Alexandra Zaïnal
Concept & original design : Baudouin d'Aumeries
Assistance for programming : Marc-Olivier Méhu
Technical & hardware support : Manuel Goepfert

Contact : metmap@orbifly.com




SOURCES & CREDITS :

   NOAA